Time;durP1;ratioP1;P1;durP2;ratioP2;P2;SDS_P1;SDS_P2;PMS_P1;PMS_P2;Temp;Humidity;BMP_temperature;BMP_pressure;BME280_temperature;BME280_humidity;BME280_pressure;Samples;Min_cycle;Max_cycle;Signal;HPM_P1;HPM_P2
2022/11/15 00:00:12;;;;;;;10.60;4.88;;;;;;;;;;5006249;28;20288;-73
2022/11/15 00:02:37;;;;;;;9.60;4.10;;;;;;;;;;5005766;28;20087;-71
2022/11/15 00:05:03;;;;;;;9.30;3.58;;;;;;;;;;5006285;28;20485;-71
2022/11/15 00:07:28;;;;;;;8.00;3.88;;;;;;;;;;5006149;28;20030;-71
2022/11/15 00:09:53;;;;;;;13.00;5.45;;;;;;;;;;5005308;28;20108;-71
2022/11/15 00:12:18;;;;;;;7.87;4.23;;;;;;;;;;5006856;28;20392;-71
2022/11/15 00:14:44;;;;;;;6.83;4.27;;;;;;;;;;5005930;28;20281;-70
2022/11/15 00:17:09;;;;;;;9.63;4.33;;;;;;;;;;5005034;28;20276;-70
2022/11/15 00:19:34;;;;;;;9.95;4.78;;;;;;;;;;5005127;28;20284;-70
2022/11/15 00:22:00;;;;;;;9.90;5.00;;;;;;;;;;5006504;28;20427;-70
2022/11/15 00:24:25;;;;;;;7.63;4.50;;;;;;;;;;5005240;28;20045;-69
2022/11/15 00:26:50;;;;;;;7.33;3.67;;;;;;;;;;5004219;28;20129;-69
2022/11/15 00:29:15;;;;;;;7.53;3.88;;;;;;;;;;5002311;28;20320;-67
2022/11/15 00:31:40;;;;;;;9.70;4.40;;;;;;;;;;5003465;28;20037;-69
2022/11/15 00:34:06;;;;;;;6.80;3.70;;;;;;;;;;5007083;28;20284;-72
2022/11/15 00:36:32;;;;;;;7.30;3.45;;;;;;;;;;5006432;28;20289;-69
2022/11/15 00:38:58;;;;;;;10.85;4.28;;;;;;;;;;5008806;28;20022;-69
2022/11/15 00:41:23;;;;;;;6.93;4.18;;;;;;;;;;5012698;28;20036;-68
2022/11/15 00:43:48;;;;;;;7.93;4.57;;;;;;;;;;5005425;28;20411;-72
2022/11/15 00:46:13;;;;;;;8.90;4.10;;;;;;;;;;5008647;28;20291;-69
2022/11/15 00:48:39;;;;;;;10.10;3.95;;;;;;;;;;5008544;28;20292;-67
2022/11/15 00:51:04;;;;;;;9.73;3.97;;;;;;;;;;5006390;28;20029;-68
2022/11/15 00:53:29;;;;;;;8.13;4.30;;;;;;;;;;5006746;28;20112;-68
2022/11/15 00:55:54;;;;;;;8.52;4.35;;;;;;;;;;5009373;28;20018;-68
2022/11/15 00:58:19;;;;;;;6.75;3.65;;;;;;;;;;5010809;28;20145;-68
2022/11/15 01:00:45;;;;;;;7.13;4.13;;;;;;;;;;5010518;28;20041;-69
2022/11/15 01:03:10;;;;;;;8.00;4.27;;;;;;;;;;5006717;28;20277;-73
2022/11/15 01:05:36;;;;;;;8.43;3.70;;;;;;;;;;5005718;28;20292;-71
2022/11/15 01:08:02;;;;;;;8.38;4.43;;;;;;;;;;5008084;28;20691;-70
2022/11/15 01:10:27;;;;;;;8.95;4.07;;;;;;;;;;5006682;28;20026;-71
2022/11/15 01:12:52;;;;;;;6.63;3.92;;;;;;;;;;5008909;28;20029;-69
2022/11/15 01:15:18;;;;;;;6.90;3.57;;;;;;;;;;5006720;28;20089;-69
2022/11/15 01:17:43;;;;;;;5.15;3.38;;;;;;;;;;5011521;28;20338;-69
2022/11/15 01:20:08;;;;;;;8.93;3.40;;;;;;;;;;5008694;28;20022;-69
2022/11/15 01:22:33;;;;;;;6.28;3.60;;;;;;;;;;5007779;28;20279;-73
2022/11/15 01:24:59;;;;;;;6.77;3.70;;;;;;;;;;5006989;28;20042;-70
2022/11/15 01:27:24;;;;;;;8.43;3.77;;;;;;;;;;5009615;28;20308;-70
2022/11/15 01:29:49;;;;;;;8.45;4.18;;;;;;;;;;5006227;28;20289;-70
2022/11/15 01:32:14;;;;;;;6.90;3.87;;;;;;;;;;5002312;28;20036;-71
2022/11/15 01:34:40;;;;;;;4.83;3.37;;;;;;;;;;5007762;28;20284;-73
2022/11/15 01:37:05;;;;;;;6.70;3.70;;;;;;;;;;5007412;28;20269;-69
2022/11/15 01:39:30;;;;;;;9.07;5.15;;;;;;;;;;5004138;28;20025;-72
2022/11/15 01:41:55;;;;;;;8.47;4.10;;;;;;;;;;5008035;28;20045;-68
2022/11/15 01:44:33;;;;;;;13.80;4.23;;;;;;;;;;5008485;28;20272;-68
2022/11/15 01:47:00;;;;;;;7.25;4.10;;;;;;;;;;5006930;28;20276;-69
2022/11/15 01:49:26;;;;;;;11.43;4.93;;;;;;;;;;5009973;28;20515;-69
2022/11/15 01:51:52;;;;;;;7.82;4.05;;;;;;;;;;5007141;28;20025;-69
2022/11/15 01:54:20;;;;;;;9.10;3.75;;;;;;;;;;5006470;28;20032;-69
2022/11/15 01:56:48;;;;;;;7.90;4.88;;;;;;;;;;5008128;28;20330;-71
2022/11/15 01:59:14;;;;;;;11.43;3.60;;;;;;;;;;5008111;28;20021;-68
2022/11/15 02:01:40;;;;;;;5.50;3.55;;;;;;;;;;5006006;28;20033;-78
2022/11/15 02:04:14;;;;;;;6.28;2.92;;;;;;;;;;5007804;28;21312;-74
2022/11/15 02:06:40;;;;;;;7.00;3.90;;;;;;;;;;5004707;28;20034;-74
2022/11/15 02:09:05;;;;;;;7.50;3.45;;;;;;;;;;5006976;28;20030;-74
2022/11/15 02:11:34;;;;;;;7.70;4.05;;;;;;;;;;5006245;28;20022;-76
2022/11/15 02:13:59;;;;;;;9.10;3.60;;;;;;;;;;5010745;28;20542;-73
2022/11/15 02:16:54;;;;;;;6.88;3.22;;;;;;;;;;5007050;28;20034;-70
2022/11/15 02:19:22;;;;;;;9.63;3.28;;;;;;;;;;4967060;28;20042;-70
2022/11/15 02:22:06;;;;;;;5.90;3.92;;;;;;;;;;5008428;28;20033;-73
2022/11/15 02:24:39;;;;;;;8.38;3.63;;;;;;;;;;5005633;28;20021;-71
2022/11/15 02:27:04;;;;;;;6.60;3.10;;;;;;;;;;5007706;28;20425;-71
2022/11/15 02:29:35;;;;;;;8.00;3.70;;;;;;;;;;5003562;28;20080;-69
2022/11/15 02:32:10;;;;;;;6.50;3.20;;;;;;;;;;5007552;28;20323;-70
2022/11/15 02:34:53;;;;;;;6.13;3.45;;;;;;;;;;5006874;28;20121;-68
2022/11/15 02:37:22;;;;;;;5.35;3.22;;;;;;;;;;5004586;28;20468;-67
2022/11/15 02:39:53;;;;;;;6.22;3.15;;;;;;;;;;5007867;28;20424;-68
2022/11/15 02:45:11;;;;;;;6.40;2.90;;;;;;;;;;5005150;28;20377;-68
2022/11/15 02:47:40;;;;;;;9.02;3.50;;;;;;;;;;5007485;28;20057;-68
2022/11/15 02:50:08;;;;;;;5.68;3.50;;;;;;;;;;5005777;28;20034;-68
2022/11/15 02:52:33;;;;;;;5.10;3.13;;;;;;;;;;5006389;28;20108;-71
2022/11/15 02:54:59;;;;;;;7.10;3.33;;;;;;;;;;5005312;28;20141;-72
2022/11/15 02:57:39;;;;;;;8.63;3.30;;;;;;;;;;5005268;28;20618;-71
2022/11/15 03:00:06;;;;;;;5.10;3.05;;;;;;;;;;5005133;28;20030;-72
2022/11/15 03:02:54;;;;;;;5.38;3.10;;;;;;;;;;5004726;28;20028;-69
2022/11/15 03:05:19;;;;;;;6.82;2.92;;;;;;;;;;5005341;28;20083;-71
2022/11/15 03:07:50;;;;;;;5.70;2.95;;;;;;;;;;5004476;28;20532;-71
2022/11/15 03:10:45;;;;;;;6.90;3.30;;;;;;;;;;5007205;28;20066;-72
2022/11/15 03:13:10;;;;;;;4.75;2.42;;;;;;;;;;4999418;28;20038;-71
2022/11/15 03:15:37;;;;;;;5.37;3.00;;;;;;;;;;5005066;28;20034;-72
2022/11/15 03:18:26;;;;;;;5.57;2.75;;;;;;;;;;5008405;28;20037;-72
2022/11/15 03:20:52;;;;;;;4.47;3.00;;;;;;;;;;5003903;28;20049;-70
2022/11/15 03:23:17;;;;;;;15.43;4.07;;;;;;;;;;5003861;28;20112;-69
2022/11/15 03:25:45;;;;;;;5.30;2.83;;;;;;;;;;5006155;28;20224;-69
2022/11/15 03:28:12;;;;;;;12.05;3.75;;;;;;;;;;5007937;28;20277;-73
2022/11/15 03:30:38;;;;;;;7.78;3.67;;;;;;;;;;5007238;28;20465;-73
2022/11/15 03:33:04;;;;;;;8.95;3.40;;;;;;;;;;5005156;28;20033;-73
2022/11/15 03:35:38;;;;;;;6.18;3.08;;;;;;;;;;5002006;28;20029;-73
2022/11/15 03:38:16;;;;;;;7.00;3.42;;;;;;;;;;5006574;28;20065;-74
2022/11/15 03:40:42;;;;;;;5.57;3.30;;;;;;;;;;5003667;28;20145;-74
2022/11/15 03:43:27;;;;;;;5.85;3.42;;;;;;;;;;5007045;28;20038;-72
2022/11/15 03:46:07;;;;;;;5.82;2.92;;;;;;;;;;5003499;28;20030;-73
2022/11/15 03:48:41;;;;;;;5.70;3.25;;;;;;;;;;5003810;28;20101;-70
2022/11/15 03:51:07;;;;;;;5.55;3.03;;;;;;;;;;5002493;28;20041;-67
2022/11/15 03:53:32;;;;;;;6.78;3.63;;;;;;;;;;5007660;28;20018;-71
2022/11/15 03:55:58;;;;;;;6.38;3.17;;;;;;;;;;5003944;28;20029;-66
2022/11/15 03:58:23;;;;;;;5.88;3.22;;;;;;;;;;5002769;28;20033;-69
2022/11/15 04:00:48;;;;;;;4.97;3.03;;;;;;;;;;5004763;28;20022;-69
2022/11/15 04:03:13;;;;;;;6.73;2.87;;;;;;;;;;5006113;28;20335;-69
2022/11/15 04:05:38;;;;;;;10.02;3.53;;;;;;;;;;5003771;28;20355;-70
2022/11/15 04:08:04;;;;;;;7.90;3.83;;;;;;;;;;5005725;28;20113;-69
2022/11/15 04:10:29;;;;;;;4.63;2.92;;;;;;;;;;5011904;28;20316;-72
2022/11/15 04:12:54;;;;;;;5.03;3.27;;;;;;;;;;5006455;28;20018;-69
2022/11/15 04:15:21;;;;;;;6.17;2.87;;;;;;;;;;5009551;28;20277;-67
2022/11/15 04:17:47;;;;;;;7.30;3.60;;;;;;;;;;5010498;28;20919;-68
2022/11/15 04:25:53;;;;;;;4.70;2.90;;;;;;;;;;5006432;28;20057;-74
2022/11/15 04:28:18;;;;;;;5.80;3.08;;;;;;;;;;5010310;28;20026;-69
2022/11/15 04:30:43;;;;;;;5.40;3.22;;;;;;;;;;5007530;28;20107;-70
2022/11/15 04:33:09;;;;;;;5.60;2.97;;;;;;;;;;5009357;28;20022;-70
2022/11/15 04:35:34;;;;;;;6.72;2.92;;;;;;;;;;5008221;28;20288;-71
2022/11/15 04:38:00;;;;;;;7.57;4.13;;;;;;;;;;5006065;28;20061;-70
2022/11/15 04:40:25;;;;;;;5.60;2.65;;;;;;;;;;5010776;28;20026;-71
2022/11/15 04:42:50;;;;;;;6.60;3.88;;;;;;;;;;5012900;28;20056;-68
2022/11/15 04:45:15;;;;;;;4.45;3.25;;;;;;;;;;5005211;28;20400;-71
2022/11/15 04:47:43;;;;;;;5.97;3.47;;;;;;;;;;5009449;28;20061;-71
2022/11/15 04:50:08;;;;;;;4.95;3.17;;;;;;;;;;5008804;28;20335;-73
2022/11/15 04:52:33;;;;;;;7.03;2.95;;;;;;;;;;5009306;28;20481;-72
2022/11/15 04:54:58;;;;;;;5.37;3.13;;;;;;;;;;5008698;28;20030;-70
2022/11/15 04:57:24;;;;;;;9.00;4.50;;;;;;;;;;5009211;28;20281;-71
2022/11/15 04:59:49;;;;;;;7.80;3.83;;;;;;;;;;5006830;28;20289;-71
2022/11/15 05:02:14;;;;;;;6.13;3.40;;;;;;;;;;5007624;28;20280;-70
2022/11/15 05:04:39;;;;;;;6.77;3.40;;;;;;;;;;5009170;28;20284;-71
2022/11/15 05:07:05;;;;;;;6.03;3.38;;;;;;;;;;5007885;28;20281;-71
2022/11/15 05:09:30;;;;;;;6.55;3.05;;;;;;;;;;5008899;28;20104;-70
2022/11/15 05:11:55;;;;;;;7.77;3.13;;;;;;;;;;5009317;28;20115;-71
2022/11/15 05:14:20;;;;;;;5.70;3.30;;;;;;;;;;5007613;28;20379;-70
2022/11/15 05:16:46;;;;;;;7.17;3.70;;;;;;;;;;5008613;28;20376;-70
2022/11/15 05:19:11;;;;;;;8.73;3.60;;;;;;;;;;5005283;28;20328;-75
2022/11/15 05:21:36;;;;;;;9.03;3.40;;;;;;;;;;5007537;28;20051;-73
2022/11/15 05:24:02;;;;;;;10.57;4.15;;;;;;;;;;5008174;28;20273;-70
2022/11/15 05:26:27;;;;;;;6.35;3.83;;;;;;;;;;5006861;28;21415;-69
2022/11/15 05:28:54;;;;;;;6.25;3.47;;;;;;;;;;5010603;28;20037;-70
2022/11/15 05:31:19;;;;;;;7.28;3.55;;;;;;;;;;5011680;28;20096;-69
2022/11/15 05:33:44;;;;;;;6.57;3.47;;;;;;;;;;5011116;28;20033;-70
2022/11/15 05:36:13;;;;;;;6.93;3.63;;;;;;;;;;5010581;28;20025;-69
2022/11/15 05:38:38;;;;;;;8.10;3.80;;;;;;;;;;5013261;28;20040;-71
2022/11/15 05:41:04;;;;;;;5.88;4.15;;;;;;;;;;5007766;28;20021;-70
2022/11/15 05:43:31;;;;;;;6.10;3.38;;;;;;;;;;5008951;28;20187;-67
2022/11/15 05:45:56;;;;;;;6.97;3.65;;;;;;;;;;5008019;28;20022;-68
2022/11/15 05:48:22;;;;;;;6.35;3.80;;;;;;;;;;5006574;28;20366;-68
2022/11/15 05:50:47;;;;;;;6.30;2.88;;;;;;;;;;5005304;28;20120;-67
2022/11/15 05:53:14;;;;;;;6.50;3.33;;;;;;;;;;5003817;28;20033;-67
2022/11/15 05:55:39;;;;;;;5.53;3.25;;;;;;;;;;5006164;28;20037;-68
2022/11/15 05:58:05;;;;;;;6.75;3.67;;;;;;;;;;5002265;28;20316;-72
2022/11/15 06:00:30;;;;;;;10.32;3.40;;;;;;;;;;5006118;28;20088;-70
2022/11/15 06:02:55;;;;;;;7.13;3.47;;;;;;;;;;5006490;28;20026;-67
2022/11/15 06:05:20;;;;;;;8.73;3.80;;;;;;;;;;5001113;28;20431;-67
2022/11/15 06:07:46;;;;;;;8.30;3.53;;;;;;;;;;5002284;28;20620;-68
2022/11/15 06:10:11;;;;;;;6.30;3.97;;;;;;;;;;5005091;28;20699;-67
2022/11/15 06:12:36;;;;;;;6.83;3.20;;;;;;;;;;5002065;28;20776;-68
2022/11/15 06:15:01;;;;;;;8.57;3.58;;;;;;;;;;5007996;28;20807;-69
2022/11/15 06:17:26;;;;;;;6.20;3.67;;;;;;;;;;5008607;28;20026;-69
2022/11/15 06:19:52;;;;;;;7.53;3.47;;;;;;;;;;5004974;28;20274;-72
2022/11/15 06:22:17;;;;;;;9.63;3.67;;;;;;;;;;5005247;28;20352;-69
2022/11/15 06:24:43;;;;;;;9.88;4.72;;;;;;;;;;5004376;28;20379;-62
2022/11/15 06:27:09;;;;;;;5.78;3.60;;;;;;;;;;5006986;28;20473;-61
2022/11/15 06:29:34;;;;;;;8.25;4.38;;;;;;;;;;5006787;28;20083;-71
2022/11/15 06:31:59;;;;;;;8.00;4.50;;;;;;;;;;5004261;28;20117;-69
2022/11/15 06:34:24;;;;;;;6.40;4.15;;;;;;;;;;5006875;28;20330;-70
2022/11/15 06:36:50;;;;;;;7.65;4.20;;;;;;;;;;5008770;28;20022;-70
2022/11/15 06:39:15;;;;;;;6.57;3.97;;;;;;;;;;5011321;28;20045;-67
2022/11/15 06:41:40;;;;;;;9.27;4.63;;;;;;;;;;5010055;28;20052;-69
2022/11/15 06:44:05;;;;;;;7.97;3.60;;;;;;;;;;5008748;28;20168;-68
2022/11/15 06:46:30;;;;;;;6.47;3.80;;;;;;;;;;5011491;28;20034;-69
2022/11/15 06:48:56;;;;;;;7.13;4.03;;;;;;;;;;5007135;28;20123;-71
2022/11/15 06:51:21;;;;;;;9.68;4.55;;;;;;;;;;5001339;28;20874;-71
2022/11/15 06:53:46;;;;;;;6.95;3.95;;;;;;;;;;5005999;28;20029;-75
2022/11/15 06:56:11;;;;;;;9.80;4.00;;;;;;;;;;5009915;28;20022;-70
2022/11/15 06:58:37;;;;;;;7.77;3.80;;;;;;;;;;5009362;28;20284;-69
2022/11/15 07:01:03;;;;;;;5.40;3.35;;;;;;;;;;5011206;28;20371;-70
2022/11/15 07:03:29;;;;;;;6.05;3.80;;;;;;;;;;5005351;28;20109;-70
2022/11/15 07:05:55;;;;;;;8.82;4.18;;;;;;;;;;5010696;28;20104;-69
2022/11/15 07:08:21;;;;;;;8.73;3.40;;;;;;;;;;5008428;28;20097;-70
2022/11/15 07:10:46;;;;;;;12.10;3.65;;;;;;;;;;5010533;28;20473;-68
2022/11/15 07:13:11;;;;;;;10.47;4.77;;;;;;;;;;5007964;28;20050;-78
2022/11/15 07:15:36;;;;;;;10.10;3.70;;;;;;;;;;5007172;28;20300;-77
2022/11/15 07:18:02;;;;;;;8.00;4.10;;;;;;;;;;5003682;28;20281;-77
2022/11/15 07:20:27;;;;;;;5.93;3.60;;;;;;;;;;5007474;28;20036;-78
2022/11/15 07:22:59;;;;;;;7.73;3.93;;;;;;;;;;5003509;28;20018;-76
2022/11/15 07:25:24;;;;;;;10.40;5.07;;;;;;;;;;5008277;28;20268;-78
2022/11/15 07:27:56;;;;;;;14.10;6.43;;;;;;;;;;5010638;28;20479;-73
2022/11/15 07:30:21;;;;;;;11.60;4.65;;;;;;;;;;5007537;28;20076;-74
2022/11/15 07:32:47;;;;;;;8.48;3.58;;;;;;;;;;5009579;28;20464;-72
2022/11/15 07:35:12;;;;;;;6.93;4.37;;;;;;;;;;5008302;28;20092;-73
2022/11/15 07:37:37;;;;;;;9.97;5.10;;;;;;;;;;5009285;28;20280;-73
2022/11/15 07:40:04;;;;;;;9.98;5.25;;;;;;;;;;5007654;28;20355;-75
2022/11/15 07:45:14;;;;;;;8.40;5.30;;;;;;;;;;5008381;28;20030;-76
2022/11/15 07:47:40;;;;;;;10.45;5.07;;;;;;;;;;5009542;28;20036;-75
2022/11/15 07:50:08;;;;;;;11.30;5.82;;;;;;;;;;5007758;28;20029;-72
2022/11/15 07:52:33;;;;;;;12.50;5.63;;;;;;;;;;5008335;28;20037;-73
2022/11/15 07:54:58;;;;;;;8.57;4.67;;;;;;;;;;5008837;28;20060;-73
2022/11/15 07:57:23;;;;;;;10.27;5.10;;;;;;;;;;5008910;28;20265;-70
2022/11/15 07:59:49;;;;;;;14.27;5.13;;;;;;;;;;5008498;28;20124;-69
2022/11/15 08:02:17;;;;;;;8.97;4.70;;;;;;;;;;5005144;28;20360;-69
2022/11/15 08:04:43;;;;;;;15.98;5.72;;;;;;;;;;5010210;28;20269;-67
2022/11/15 08:07:08;;;;;;;11.73;5.35;;;;;;;;;;5009783;28;20197;-76
2022/11/15 08:09:34;;;;;;;11.17;4.83;;;;;;;;;;5009628;28;20029;-69
2022/11/15 08:11:59;;;;;;;11.80;4.43;;;;;;;;;;5005213;28;20276;-71
2022/11/15 08:14:24;;;;;;;11.95;5.15;;;;;;;;;;5024694;28;20568;-76
2022/11/15 08:16:49;;;;;;;12.50;5.63;;;;;;;;;;5023750;28;20045;-73
2022/11/15 08:19:15;;;;;;;7.60;4.80;;;;;;;;;;5024794;28;20124;-76
2022/11/15 08:21:40;;;;;;;10.43;4.97;;;;;;;;;;5006745;28;20365;-71
2022/11/15 08:24:06;;;;;;;10.45;4.68;;;;;;;;;;5026495;28;20248;-67
2022/11/15 08:26:31;;;;;;;8.43;4.78;;;;;;;;;;5024179;28;20025;-80
2022/11/15 08:28:56;;;;;;;9.35;3.88;;;;;;;;;;5027265;28;20034;-75
2022/11/15 08:31:21;;;;;;;8.05;3.30;;;;;;;;;;5007910;28;20116;-77
2022/11/15 08:33:47;;;;;;;7.05;3.63;;;;;;;;;;5027449;28;20037;-80
2022/11/15 08:36:15;;;;;;;10.80;4.63;;;;;;;;;;5009859;28;20029;-79
2022/11/15 08:38:41;;;;;;;12.38;4.68;;;;;;;;;;5011983;28;20319;-80
2022/11/15 08:41:06;;;;;;;8.32;4.03;;;;;;;;;;5010430;28;20053;-75
2022/11/15 08:43:32;;;;;;;7.20;3.53;;;;;;;;;;4998628;28;20487;-83
2022/11/15 08:45:57;;;;;;;9.80;3.67;;;;;;;;;;5008094;28;20432;-67
2022/11/15 08:48:23;;;;;;;11.73;4.45;;;;;;;;;;5007119;28;20381;-67
2022/11/15 08:50:48;;;;;;;7.90;4.93;;;;;;;;;;5009561;28;20022;-67
2022/11/15 08:53:13;;;;;;;10.15;4.22;;;;;;;;;;5005620;28;20100;-69
2022/11/15 08:55:39;;;;;;;10.50;4.10;;;;;;;;;;5012159;28;20424;-68
2022/11/15 08:58:04;;;;;;;9.18;4.82;;;;;;;;;;5011811;28;20057;-69
2022/11/15 09:00:29;;;;;;;8.63;4.23;;;;;;;;;;5012214;28;20029;-73
2022/11/15 09:02:56;;;;;;;9.32;3.63;;;;;;;;;;5008909;28;20280;-71
2022/11/15 09:05:21;;;;;;;9.70;5.53;;;;;;;;;;5008370;28;20052;-70
2022/11/15 09:07:46;;;;;;;11.95;4.90;;;;;;;;;;5010965;28;20041;-72
2022/11/15 09:10:21;;;;;;;12.02;7.07;;;;;;;;;;5011125;28;20750;-74
2022/11/15 09:12:56;;;;;;;14.50;4.60;;;;;;;;;;4975660;28;20034;-74
2022/11/15 09:15:21;;;;;;;11.57;4.25;;;;;;;;;;5024315;28;20113;-73
2022/11/15 09:17:47;;;;;;;9.97;5.07;;;;;;;;;;5010591;28;20108;-73
2022/11/15 09:20:15;;;;;;;10.55;4.22;;;;;;;;;;5029971;28;20304;-76
2022/11/15 09:22:41;;;;;;;8.60;4.00;;;;;;;;;;5010401;28;20634;-72
2022/11/15 09:25:06;;;;;;;8.57;4.95;;;;;;;;;;5011526;28;20056;-69
2022/11/15 09:27:31;;;;;;;8.35;4.88;;;;;;;;;;5030158;28;20168;-69
2022/11/15 09:29:57;;;;;;;6.40;3.30;;;;;;;;;;5012953;28;20061;-72
2022/11/15 09:32:25;;;;;;;6.25;3.70;;;;;;;;;;5027276;28;20375;-70
2022/11/15 09:34:50;;;;;;;9.80;3.47;;;;;;;;;;5012513;28;20059;-72
2022/11/15 09:37:16;;;;;;;8.52;3.47;;;;;;;;;;5013410;28;20079;-71
2022/11/15 09:39:44;;;;;;;7.38;3.90;;;;;;;;;;5028151;28;20049;-72
2022/11/15 09:42:25;;;;;;;11.52;5.30;;;;;;;;;;5028695;28;20048;-71
2022/11/15 09:44:56;;;;;;;10.73;5.63;;;;;;;;;;5027686;28;20033;-73
2022/11/15 09:47:27;;;;;;;9.57;5.45;;;;;;;;;;5008652;28;20025;-73
2022/11/15 09:49:56;;;;;;;8.57;4.78;;;;;;;;;;5027827;28;20037;-74
2022/11/15 09:52:22;;;;;;;5.57;4.03;;;;;;;;;;5010987;28;20587;-75
2022/11/15 09:54:48;;;;;;;6.45;3.42;;;;;;;;;;5011917;28;20033;-76
2022/11/15 09:57:16;;;;;;;8.10;4.25;;;;;;;;;;5013274;28;20501;-72
2022/11/15 09:59:49;;;;;;;6.22;3.70;;;;;;;;;;5011700;28;20030;-72
2022/11/15 10:02:52;;;;;;;6.93;3.40;;;;;;;;;;5007692;28;20033;-75
2022/11/15 10:05:22;;;;;;;6.15;3.22;;;;;;;;;;5008812;28;20354;-76
2022/11/15 10:07:57;;;;;;;5.75;3.17;;;;;;;;;;5008377;28;20044;-73
2022/11/15 10:10:43;;;;;;;5.38;2.83;;;;;;;;;;4978296;28;20046;-72
2022/11/15 10:13:13;;;;;;;9.02;4.07;;;;;;;;;;5005192;28;20492;-80
2022/11/15 10:15:38;;;;;;;7.60;3.15;;;;;;;;;;5006385;28;20512;-71
2022/11/15 10:18:33;;;;;;;7.43;3.47;;;;;;;;;;5008135;28;20042;-81
2022/11/15 10:20:59;;;;;;;7.75;3.75;;;;;;;;;;4983202;28;20036;-82
2022/11/15 10:23:26;;;;;;;9.30;4.82;;;;;;;;;;5009100;28;20030;-78
2022/11/15 10:25:53;;;;;;;7.30;3.72;;;;;;;;;;4991924;28;20041;-76
2022/11/15 10:28:22;;;;;;;4.72;2.78;;;;;;;;;;4992354;28;20049;-80
2022/11/15 10:30:52;;;;;;;5.43;2.60;;;;;;;;;;5007184;28;20032;-80
2022/11/15 10:33:17;;;;;;;5.35;2.88;;;;;;;;;;4992487;28;20456;-73
2022/11/15 10:35:44;;;;;;;6.60;2.90;;;;;;;;;;4991789;28;20053;-73
2022/11/15 10:38:10;;;;;;;4.35;2.60;;;;;;;;;;4989454;28;20042;-72
2022/11/15 10:40:48;;;;;;;5.78;2.20;;;;;;;;;;5011111;28;20022;-72
2022/11/15 10:43:19;;;;;;;6.32;2.67;;;;;;;;;;5008271;28;20029;-72
2022/11/15 10:45:49;;;;;;;3.83;2.55;;;;;;;;;;5009364;28;20044;-68
2022/11/15 10:48:20;;;;;;;7.57;3.80;;;;;;;;;;5009069;28;20160;-73
2022/11/15 10:50:46;;;;;;;4.38;2.22;;;;;;;;;;5010596;28;20069;-71
2022/11/15 10:53:17;;;;;;;5.63;2.20;;;;;;;;;;5006396;28;20022;-69
2022/11/15 10:55:46;;;;;;;9.55;3.05;;;;;;;;;;5019036;28;20027;-78
2022/11/15 10:58:21;;;;;;;5.82;2.55;;;;;;;;;;5003663;28;20152;-81
2022/11/15 11:00:46;;;;;;;6.15;3.03;;;;;;;;;;5009656;28;20273;-80
2022/11/15 11:03:23;;;;;;;6.90;3.15;;;;;;;;;;5012466;28;20304;-81
2022/11/15 11:06:02;;;;;;;7.65;2.95;;;;;;;;;;5008684;28;20042;-78
2022/11/15 11:08:27;;;;;;;5.47;2.58;;;;;;;;;;5005248;28;20088;-80
2022/11/15 11:10:56;;;;;;;7.40;3.10;;;;;;;;;;5009192;28;20040;-69
2022/11/15 11:13:25;;;;;;;10.32;3.40;;;;;;;;;;5009832;28;20017;-80
2022/11/15 11:15:54;;;;;;;7.85;3.20;;;;;;;;;;5007000;28;20029;-80
2022/11/15 11:18:27;;;;;;;8.23;3.78;;;;;;;;;;5010547;28;20530;-78
2022/11/15 11:20:56;;;;;;;5.80;3.17;;;;;;;;;;5010262;28;20030;-77
2022/11/15 11:23:35;;;;;;;7.50;2.50;;;;;;;;;;5008579;28;20022;-79
2022/11/15 11:26:13;;;;;;;6.25;3.30;;;;;;;;;;5009622;28;20030;-78
2022/11/15 11:28:44;;;;;;;7.55;3.40;;;;;;;;;;5004291;28;20480;-71
2022/11/15 11:31:13;;;;;;;6.65;3.00;;;;;;;;;;5004882;28;20029;-79
2022/11/15 11:33:41;;;;;;;6.95;2.67;;;;;;;;;;5007438;28;20072;-81
2022/11/15 11:36:18;;;;;;;4.30;2.30;;;;;;;;;;5009840;28;20033;-79
2022/11/15 11:39:14;;;;;;;8.98;2.72;;;;;;;;;;5010081;28;21280;-77
2022/11/15 11:41:45;;;;;;;6.65;2.58;;;;;;;;;;5010037;28;20061;-77
2022/11/15 11:44:25;;;;;;;7.22;3.00;;;;;;;;;;5005916;28;20436;-78
2022/11/15 11:46:53;;;;;;;8.68;2.88;;;;;;;;;;5006971;28;20369;-70
2022/11/15 11:49:21;;;;;;;5.95;3.10;;;;;;;;;;5006416;28;20022;-70
2022/11/15 11:51:52;;;;;;;4.45;2.33;;;;;;;;;;5008607;28;20026;-69
2022/11/15 11:54:25;;;;;;;8.38;3.03;;;;;;;;;;5009267;28;20076;-70
2022/11/15 11:56:51;;;;;;;10.32;4.20;;;;;;;;;;5008394;28;20022;-70
2022/11/15 11:59:40;;;;;;;13.75;5.68;;;;;;;;;;5007350;28;20058;-69
2022/11/15 12:02:18;;;;;;;8.95;3.80;;;;;;;;;;5003497;28;20107;-70
2022/11/15 12:04:47;;;;;;;7.18;3.30;;;;;;;;;;5007965;28;20056;-76
2022/11/15 12:07:18;;;;;;;5.90;2.72;;;;;;;;;;5008191;28;20037;-70
2022/11/15 12:10:04;;;;;;;5.90;2.20;;;;;;;;;;5001550;28;20085;-69
2022/11/15 12:12:44;;;;;;;9.00;3.08;;;;;;;;;;5008248;28;20523;-71
2022/11/15 12:15:09;;;;;;;4.30;2.05;;;;;;;;;;5002113;28;20049;-71
2022/11/15 12:17:35;;;;;;;7.43;2.45;;;;;;;;;;5010700;28;20033;-69
2022/11/15 12:20:13;;;;;;;3.50;1.95;;;;;;;;;;5009862;28;20045;-71
2022/11/15 12:22:43;;;;;;;6.13;2.97;;;;;;;;;;5008689;28;20080;-75
2022/11/15 12:25:16;;;;;;;5.13;3.20;;;;;;;;;;5007166;28;20038;-73
2022/11/15 12:27:47;;;;;;;6.95;3.42;;;;;;;;;;5011146;28;20476;-70
2022/11/15 12:30:14;;;;;;;6.00;2.40;;;;;;;;;;5010197;28;20076;-69
2022/11/15 12:32:48;;;;;;;9.20;4.15;;;;;;;;;;5009921;28;20538;-72
2022/11/15 12:35:26;;;;;;;10.70;3.72;;;;;;;;;;5005069;28;20027;-69
2022/11/15 12:37:54;;;;;;;9.43;3.60;;;;;;;;;;5011590;28;20022;-70
2022/11/15 12:40:26;;;;;;;9.35;4.38;;;;;;;;;;5012468;28;20172;-75
2022/11/15 12:43:00;;;;;;;5.25;3.00;;;;;;;;;;5011875;28;20040;-68
2022/11/15 12:45:28;;;;;;;9.80;3.50;;;;;;;;;;5013095;28;20356;-76
2022/11/15 12:47:53;;;;;;;7.00;3.05;;;;;;;;;;5011598;28;20021;-73
2022/11/15 12:50:37;;;;;;;6.32;2.33;;;;;;;;;;5013653;28;20049;-77
2022/11/15 12:53:21;;;;;;;7.65;2.60;;;;;;;;;;5011179;28;20030;-77
2022/11/15 12:56:06;;;;;;;7.72;3.75;;;;;;;;;;5013683;28;20041;-75
2022/11/15 12:58:43;;;;;;;11.68;3.63;;;;;;;;;;5007969;28;20030;-74
2022/11/15 13:01:08;;;;;;;10.07;3.22;;;;;;;;;;5013188;28;20456;-69
2022/11/15 13:03:34;;;;;;;8.15;3.70;;;;;;;;;;5009118;28;20033;-76
2022/11/15 13:06:00;;;;;;;7.68;3.40;;;;;;;;;;5008874;28;20034;-73
2022/11/15 13:08:52;;;;;;;4.32;2.35;;;;;;;;;;5009720;28;20037;-73
2022/11/15 13:11:56;;;;;;;5.50;2.60;;;;;;;;;;5013075;28;20077;-75
2022/11/15 13:14:36;;;;;;;6.50;3.35;;;;;;;;;;4966087;28;20023;-77
2022/11/15 13:17:01;;;;;;;4.65;2.42;;;;;;;;;;4969986;28;20355;-80
2022/11/15 13:19:27;;;;;;;7.53;2.80;;;;;;;;;;4970027;28;20038;-69
2022/11/15 13:24:38;;;;;;;6.43;3.30;;;;;;;;;;4968677;28;20039;-70
2022/11/15 13:27:10;;;;;;;6.15;2.85;;;;;;;;;;4951914;28;20019;-70
2022/11/15 13:29:35;;;;;;;8.38;3.15;;;;;;;;;;4966909;28;20110;-72
2022/11/15 13:32:01;;;;;;;8.47;3.53;;;;;;;;;;4966850;28;20069;-71
2022/11/15 13:34:28;;;;;;;9.52;3.35;;;;;;;;;;4966896;28;20294;-70
2022/11/15 13:36:53;;;;;;;5.25;2.45;;;;;;;;;;4968509;28;20503;-70
2022/11/15 13:39:48;;;;;;;6.07;3.00;;;;;;;;;;4950085;28;20086;-74
2022/11/15 13:42:20;;;;;;;6.00;2.53;;;;;;;;;;4952964;28;20166;-73
2022/11/15 13:44:59;;;;;;;5.80;2.97;;;;;;;;;;4982927;28;20033;-76
2022/11/15 13:47:28;;;;;;;6.13;3.15;;;;;;;;;;5009845;28;20018;-73
2022/11/15 13:49:56;;;;;;;5.95;2.78;;;;;;;;;;5009095;28;20037;-73
2022/11/15 13:52:21;;;;;;;7.20;2.33;;;;;;;;;;5010128;28;20037;-73
2022/11/15 13:54:58;;;;;;;5.55;2.90;;;;;;;;;;5011395;28;20037;-69
2022/11/15 13:57:25;;;;;;;8.23;2.53;;;;;;;;;;5008120;28;20091;-70
2022/11/15 14:00:04;;;;;;;5.35;2.33;;;;;;;;;;5010732;28;20042;-71
2022/11/15 14:02:32;;;;;;;6.93;2.88;;;;;;;;;;5009916;28;20061;-64
2022/11/15 14:05:02;;;;;;;5.80;3.35;;;;;;;;;;5005613;28;20034;-61
2022/11/15 14:07:28;;;;;;;6.07;2.97;;;;;;;;;;5010057;28;20034;-60
2022/11/15 14:09:54;;;;;;;7.85;3.28;;;;;;;;;;5006953;28;20123;-63
2022/11/15 14:12:22;;;;;;;5.53;3.15;;;;;;;;;;5006407;28;20113;-71
2022/11/15 14:14:48;;;;;;;4.70;2.75;;;;;;;;;;5005701;28;20099;-83
2022/11/15 14:17:20;;;;;;;9.30;3.15;;;;;;;;;;5010772;28;20423;-76
2022/11/15 14:19:45;;;;;;;9.60;3.63;;;;;;;;;;5008725;28;20046;-77
2022/11/15 14:22:10;;;;;;;8.40;3.40;;;;;;;;;;5010371;28;20060;-80
2022/11/15 14:24:36;;;;;;;10.80;3.28;;;;;;;;;;5012107;28;20041;-87
2022/11/15 14:27:21;;;;;;;7.30;3.25;;;;;;;;;;5008309;28;20100;-80
2022/11/15 14:29:47;;;;;;;7.35;3.70;;;;;;;;;;5011462;28;20112;-76
2022/11/15 14:32:14;;;;;;;7.20;3.40;;;;;;;;;;5008329;28;20045;-72
2022/11/15 14:34:40;;;;;;;6.82;3.30;;;;;;;;;;5008987;28;20041;-75
2022/11/15 14:37:20;;;;;;;7.30;3.40;;;;;;;;;;5006819;28;20029;-74
2022/11/15 14:39:45;;;;;;;7.93;3.60;;;;;;;;;;4998516;28;20288;-74
2022/11/15 14:42:10;;;;;;;8.07;3.42;;;;;;;;;;5003944;28;20026;-73
2022/11/15 14:44:36;;;;;;;6.20;2.83;;;;;;;;;;5011726;28;20080;-75
2022/11/15 14:47:01;;;;;;;11.13;4.30;;;;;;;;;;5010063;28;20288;-75
2022/11/15 14:49:26;;;;;;;6.47;3.00;;;;;;;;;;5009043;28;20269;-73
2022/11/15 14:51:51;;;;;;;7.05;3.72;;;;;;;;;;5007072;28;20312;-71
2022/11/15 14:54:16;;;;;;;7.45;3.78;;;;;;;;;;5009840;28;20493;-77
2022/11/15 14:56:42;;;;;;;11.23;4.03;;;;;;;;;;5007448;28;20144;-77
2022/11/15 14:59:07;;;;;;;6.38;3.50;;;;;;;;;;5011893;28;20701;-78
2022/11/15 15:01:33;;;;;;;7.57;3.53;;;;;;;;;;5008152;28;20033;-77